createdAt,value
2023-01-13T00:00:59.297Z,12.70
2023-01-13T00:03:26.054Z,12.80
2023-01-13T00:05:52.786Z,12.70
2023-01-13T00:08:19.504Z,12.70
2023-01-13T00:10:49.304Z,12.70
2023-01-13T00:13:16.149Z,12.80
2023-01-13T00:15:43.456Z,12.80
2023-01-13T00:18:10.264Z,12.80
2023-01-13T00:20:36.995Z,12.80
2023-01-13T00:23:04.496Z,12.80
2023-01-13T00:25:31.222Z,12.80
2023-01-13T00:27:57.946Z,12.80
2023-01-13T00:30:24.683Z,12.80
2023-01-13T00:32:51.387Z,12.80
2023-01-13T00:35:18.168Z,12.80
2023-01-13T00:37:44.863Z,12.80
2023-01-13T00:40:12.398Z,12.80
2023-01-13T00:42:58.025Z,12.90
2023-01-13T00:45:24.737Z,12.80
2023-01-13T00:47:51.473Z,12.80
2023-01-13T00:50:18.334Z,12.80
2023-01-13T00:52:45.117Z,12.80
2023-01-13T00:55:11.892Z,12.80
2023-01-13T00:57:40.132Z,12.90
2023-01-13T01:00:07.610Z,12.90
2023-01-13T01:02:34.450Z,12.80
2023-01-13T01:05:01.254Z,12.80
2023-01-13T01:07:28.125Z,12.80
2023-01-13T01:09:55.255Z,12.80
2023-01-13T01:12:21.968Z,12.70
2023-01-13T01:14:48.752Z,12.70
2023-01-13T01:17:15.462Z,12.70
2023-01-13T01:19:42.376Z,12.70
2023-01-13T01:22:09.091Z,12.70
2023-01-13T01:24:35.816Z,12.70
2023-01-13T01:27:02.606Z,12.70
2023-01-13T01:29:29.540Z,12.70
2023-01-13T01:31:57.889Z,12.70
2023-01-13T01:34:24.669Z,12.70
2023-01-13T01:36:51.381Z,12.80
2023-01-13T01:39:18.116Z,12.80
2023-01-13T01:42:04.865Z,12.80
2023-01-13T01:44:52.449Z,12.80
2023-01-13T01:47:20.355Z,12.80
2023-01-13T01:49:48.795Z,12.80
2023-01-13T01:52:21.066Z,12.80
2023-01-13T01:54:56.431Z,12.80
2023-01-13T01:57:27.107Z,12.80
2023-01-13T01:59:54.554Z,12.80
2023-01-13T02:02:22.312Z,12.80
2023-01-13T02:04:53.506Z,12.80
2023-01-13T02:07:25.031Z,12.70
2023-01-13T02:09:54.161Z,12.70
2023-01-13T02:12:30.518Z,12.70
2023-01-13T02:15:05.170Z,12.70
2023-01-13T02:18:19.521Z,12.70
2023-01-13T02:21:01.517Z,12.70
2023-01-13T02:24:24.478Z,12.70
2023-01-13T02:27:15.995Z,12.70
2023-01-13T02:30:17.813Z,12.70
2023-01-13T02:33:10.989Z,12.70
2023-01-13T02:35:50.672Z,12.70
2023-01-13T02:38:23.565Z,12.70
2023-01-13T02:40:59.316Z,12.60
2023-01-13T02:43:51.046Z,12.60
2023-01-13T02:46:31.648Z,12.60
2023-01-13T02:49:04.798Z,12.60
2023-01-13T02:51:33.051Z,12.50
2023-01-13T02:54:20.958Z,12.50
2023-01-13T02:56:51.135Z,12.50
2023-01-13T02:59:19.530Z,12.50
2023-01-13T03:01:47.668Z,12.50
2023-01-13T03:04:35.612Z,12.50
2023-01-13T03:07:12.821Z,12.40
2023-01-13T03:09:49.529Z,12.40
2023-01-13T03:12:24.734Z,12.40
2023-01-13T03:15:04.205Z,12.40
2023-01-13T03:17:36.203Z,12.40
2023-01-13T03:20:21.510Z,12.30
2023-01-13T03:22:58.786Z,12.30
2023-01-13T03:25:29.967Z,12.30
2023-01-13T03:28:05.174Z,12.30
2023-01-13T03:30:42.714Z,12.30
2023-01-13T03:33:17.629Z,12.30
2023-01-13T03:35:49.285Z,12.30
2023-01-13T03:38:21.857Z,12.30
2023-01-13T03:41:13.635Z,12.30
2023-01-13T03:44:12.693Z,12.30
2023-01-13T03:47:00.320Z,12.30
2023-01-13T03:49:36.788Z,12.30
2023-01-13T03:52:07.744Z,12.30
2023-01-13T03:54:42.449Z,12.30
2023-01-13T03:57:12.119Z,12.30
2023-01-13T03:59:43.303Z,12.30
2023-01-13T04:02:45.071Z,12.30
2023-01-13T04:05:12.616Z,12.30
2023-01-13T04:07:44.251Z,12.30
2023-01-13T04:10:12.006Z,12.30
2023-01-13T04:13:02.476Z,12.30
2023-01-13T04:15:39.077Z,12.30
2023-01-13T04:18:26.584Z,12.30
2023-01-13T04:20:56.024Z,12.30
2023-01-13T04:23:22.959Z,12.20
2023-01-13T04:25:50.692Z,12.20
2023-01-13T04:28:18.530Z,12.20
2023-01-13T04:30:46.108Z,12.10
2023-01-13T04:33:13.670Z,12.10
2023-01-13T04:35:40.603Z,12.00
2023-01-13T04:38:10.259Z,12.00
2023-01-13T04:40:36.918Z,12.00
2023-01-13T04:43:03.780Z,12.00
2023-01-13T04:45:30.639Z,12.00
2023-01-13T04:47:57.474Z,11.90
2023-01-13T04:50:25.004Z,11.90
2023-01-13T04:52:52.695Z,11.90
2023-01-13T04:55:21.007Z,11.90
2023-01-13T04:57:47.617Z,11.90
2023-01-13T05:00:16.525Z,11.90
2023-01-13T05:02:43.122Z,11.90
2023-01-13T05:05:10.725Z,11.90
2023-01-13T05:07:37.389Z,11.90
2023-01-13T05:10:04.839Z,11.80
2023-01-13T05:12:50.164Z,11.80
2023-01-13T05:15:35.437Z,11.80
2023-01-13T05:18:02.441Z,11.80
2023-01-13T05:20:29.142Z,11.80
2023-01-13T05:23:14.367Z,11.80
2023-01-13T05:25:44.588Z,11.70
2023-01-13T05:28:11.609Z,11.70
2023-01-13T05:30:43.447Z,11.70
2023-01-13T05:33:15.009Z,11.70
2023-01-13T05:35:43.728Z,11.70
2023-01-13T05:38:10.705Z,11.70
2023-01-13T05:41:00.100Z,11.70
2023-01-13T05:43:27.582Z,11.70
2023-01-13T05:46:01.587Z,11.70
2023-01-13T05:48:37.106Z,11.70
2023-01-13T05:51:05.696Z,11.70
2023-01-13T05:53:32.913Z,11.70
2023-01-13T05:56:00.343Z,11.70
2023-01-13T05:58:28.021Z,11.60
2023-01-13T06:01:04.620Z,11.60
2023-01-13T06:03:31.528Z,11.70
2023-01-13T06:06:02.231Z,11.70
2023-01-13T06:08:29.974Z,11.70
2023-01-13T06:10:57.209Z,11.70
2023-01-13T06:13:25.321Z,11.70
2023-01-13T06:15:55.068Z,11.70
2023-01-13T06:18:21.707Z,11.70
2023-01-13T06:20:48.287Z,11.70
2023-01-13T06:23:14.919Z,11.80
2023-01-13T06:26:09.833Z,11.80
2023-01-13T06:28:36.803Z,11.80
2023-01-13T06:31:07.249Z,11.80
2023-01-13T06:33:37.836Z,11.80
2023-01-13T06:36:10.081Z,11.90
2023-01-13T06:38:40.713Z,11.80
2023-01-13T06:41:07.997Z,11.90
2023-01-13T06:43:35.645Z,11.90
2023-01-13T06:46:03.051Z,11.90
2023-01-13T06:48:35.599Z,12.00
2023-01-13T06:51:03.815Z,12.00
2023-01-13T06:53:30.685Z,12.10
2023-01-13T06:55:57.513Z,12.10
2023-01-13T06:58:24.171Z,12.20
2023-01-13T07:00:51.672Z,12.20
2023-01-13T07:03:19.650Z,12.20
2023-01-13T07:05:53.440Z,12.20
2023-01-13T07:08:20.473Z,12.20
2023-01-13T07:10:47.176Z,12.20
2023-01-13T07:13:32.738Z,12.20
2023-01-13T07:16:04.898Z,12.30
2023-01-13T07:18:32.868Z,12.20
2023-01-13T07:21:02.192Z,12.30
2023-01-13T07:23:30.943Z,12.30
2023-01-13T07:25:59.284Z,12.30
2023-01-13T07:28:27.724Z,12.30
2023-01-13T07:30:54.779Z,12.30
2023-01-13T07:33:21.604Z,12.30
2023-01-13T07:35:49.049Z,12.30
2023-01-13T07:38:16.097Z,12.30
2023-01-13T07:40:42.823Z,12.30
2023-01-13T07:43:33.245Z,12.40
2023-01-13T07:46:05.744Z,12.40
2023-01-13T07:48:34.192Z,12.40
2023-01-13T07:51:08.619Z,12.30
2023-01-13T07:53:36.111Z,12.40
2023-01-13T07:56:04.361Z,12.30
2023-01-13T07:58:32.550Z,12.30
2023-01-13T08:00:59.372Z,12.20
2023-01-13T08:03:27.034Z,12.20
2023-01-13T08:05:53.762Z,12.20
2023-01-13T08:08:20.414Z,12.20
2023-01-13T08:10:47.075Z,12.20
2023-01-13T08:13:19.639Z,12.20
2023-01-13T08:15:48.216Z,12.20
2023-01-13T08:18:15.216Z,12.20
2023-01-13T08:20:41.908Z,12.20
2023-01-13T08:23:08.503Z,12.10
2023-01-13T08:25:35.130Z,12.10
2023-01-13T08:28:01.989Z,12.00
2023-01-13T08:30:28.821Z,12.00
2023-01-13T08:32:55.499Z,11.90
2023-01-13T08:35:22.645Z,11.90
2023-01-13T08:37:50.004Z,11.90
2023-01-13T08:40:18.496Z,11.90
2023-01-13T08:42:48.371Z,11.90
2023-01-13T08:45:15.324Z,11.90
2023-01-13T08:47:42.002Z,11.90
2023-01-13T08:50:09.799Z,11.90
2023-01-13T08:52:36.467Z,11.90
2023-01-13T08:55:03.445Z,11.90
2023-01-13T08:57:30.290Z,12.00
2023-01-13T08:59:56.932Z,12.00
2023-01-13T09:02:24.729Z,11.90
2023-01-13T09:04:51.725Z,11.90
2023-01-13T09:07:18.960Z,11.90
2023-01-13T09:09:45.592Z,11.80
2023-01-13T09:12:33.337Z,11.90
2023-01-13T09:15:00.408Z,11.90
2023-01-13T09:17:27.519Z,11.90
2023-01-13T09:19:54.160Z,11.90
2023-01-13T09:22:21.824Z,11.90
2023-01-13T09:24:48.442Z,12.00
2023-01-13T09:27:15.476Z,12.00
2023-01-13T09:29:42.283Z,12.10
2023-01-13T09:32:12.325Z,12.20
2023-01-13T09:34:58.006Z,12.20
2023-01-13T09:37:24.873Z,12.10
2023-01-13T09:39:51.526Z,12.10
2023-01-13T09:43:07.038Z,12.10
2023-01-13T09:45:50.313Z,12.10
2023-01-13T09:48:26.185Z,12.10
2023-01-13T09:51:20.807Z,12.00
2023-01-13T09:53:55.785Z,12.00
2023-01-13T09:56:24.117Z,12.00
2023-01-13T09:58:50.917Z,12.00
2023-01-13T10:01:33.004Z,12.00
2023-01-13T10:04:14.126Z,12.00
2023-01-13T10:06:44.224Z,12.00
2023-01-13T10:09:18.467Z,12.00
2023-01-13T10:12:06.151Z,12.00
2023-01-13T10:14:43.112Z,12.00
2023-01-13T10:17:39.871Z,12.10
2023-01-13T10:20:26.329Z,12.20
2023-01-13T10:23:14.604Z,12.20
2023-01-13T10:26:23.967Z,12.30
2023-01-13T10:28:57.658Z,12.30
2023-01-13T10:31:25.329Z,12.30
2023-01-13T10:34:00.017Z,12.30
2023-01-13T10:36:27.020Z,12.30
2023-01-13T10:39:07.115Z,12.30
2023-01-13T10:41:36.064Z,12.20
2023-01-13T10:44:09.423Z,12.20
2023-01-13T10:46:54.494Z,12.10
2023-01-13T10:49:36.152Z,12.20
2023-01-13T10:52:05.736Z,12.30
2023-01-13T10:54:32.855Z,12.30
2023-01-13T10:57:28.693Z,12.30
2023-01-13T10:59:55.753Z,12.30
2023-01-13T11:02:30.627Z,12.40
2023-01-13T11:04:58.179Z,12.40
2023-01-13T11:07:40.080Z,12.30
2023-01-13T11:10:14.397Z,12.40
2023-01-13T11:13:14.325Z,12.40
2023-01-13T11:15:56.413Z,12.50
2023-01-13T11:18:40.121Z,12.50
2023-01-13T11:21:11.919Z,12.50
2023-01-13T11:23:47.292Z,12.40
2023-01-13T11:26:20.983Z,12.40
2023-01-13T11:29:04.350Z,12.40
2023-01-13T11:31:36.991Z,12.50
2023-01-13T11:34:08.431Z,12.50
2023-01-13T11:36:41.418Z,12.50
2023-01-13T11:39:41.088Z,12.40
2023-01-13T11:42:24.417Z,12.50
2023-01-13T11:45:01.352Z,12.40
2023-01-13T11:47:28.844Z,12.40
2023-01-13T11:49:55.969Z,12.30
2023-01-13T11:52:48.586Z,12.30
2023-01-13T11:55:29.677Z,12.40
2023-01-13T11:58:13.856Z,12.40
2023-01-13T12:00:52.306Z,12.50
2023-01-13T12:04:13.255Z,12.50
2023-01-13T12:06:41.201Z,12.60
2023-01-13T12:09:26.090Z,12.60
2023-01-13T12:12:35.732Z,12.70
2023-01-13T12:15:24.015Z,12.70
2023-01-13T12:18:17.008Z,12.80
2023-01-13T12:20:53.066Z,12.80
2023-01-13T12:23:57.132Z,12.70
2023-01-13T12:26:24.701Z,12.70
2023-01-13T12:29:04.703Z,12.80
2023-01-13T12:31:34.510Z,12.90
2023-01-13T12:34:22.467Z,13.00
2023-01-13T12:37:16.401Z,13.00
2023-01-13T12:39:49.667Z,12.90
2023-01-13T12:42:42.869Z,12.80
2023-01-13T12:45:12.470Z,12.70
2023-01-13T12:47:44.880Z,12.60
2023-01-13T12:50:23.869Z,12.60
2023-01-13T12:53:21.066Z,12.70
2023-01-13T12:55:53.592Z,12.80
2023-01-13T12:58:28.414Z,12.80
2023-01-13T13:01:10.671Z,12.80
2023-01-13T13:03:37.620Z,12.80
2023-01-13T13:06:22.779Z,12.80
2023-01-13T13:09:05.423Z,12.90
2023-01-13T13:11:59.293Z,13.00
2023-01-13T13:14:37.999Z,13.10
2023-01-13T13:17:25.377Z,13.20
2023-01-13T13:19:52.258Z,13.20
2023-01-13T13:22:27.944Z,13.20
2023-01-13T13:24:54.530Z,13.20
2023-01-13T13:27:42.636Z,13.20
2023-01-13T13:30:22.491Z,13.30
2023-01-13T13:33:19.926Z,13.20
2023-01-13T13:36:04.804Z,13.10
2023-01-13T13:39:14.388Z,12.90
2023-01-13T13:42:05.602Z,12.80
2023-01-13T13:44:56.334Z,12.60
2023-01-13T13:47:23.001Z,12.40
2023-01-13T13:49:56.877Z,12.30
2023-01-13T13:52:54.350Z,12.30
2023-01-13T13:55:21.090Z,12.20
2023-01-13T13:57:51.149Z,12.10
2023-01-13T14:00:30.410Z,12.00
2023-01-13T14:03:02.289Z,12.00
2023-01-13T14:05:33.685Z,11.90
2023-01-13T14:08:02.868Z,11.80
2023-01-13T14:10:33.022Z,11.70
2023-01-13T14:13:01.398Z,11.80
2023-01-13T14:15:34.424Z,11.80
2023-01-13T14:18:03.976Z,11.80
2023-01-13T14:20:31.458Z,11.70
2023-01-13T14:23:01.656Z,11.60
2023-01-13T14:25:45.689Z,11.60
2023-01-13T14:28:32.276Z,11.60
2023-01-13T14:30:59.979Z,11.50
2023-01-13T14:33:39.573Z,11.40
2023-01-13T14:36:07.143Z,11.30
2023-01-13T14:38:33.908Z,11.20
2023-01-13T14:41:10.483Z,11.10
2023-01-13T14:43:43.506Z,11.00
2023-01-13T14:46:10.783Z,11.00
2023-01-13T14:48:37.625Z,10.90
2023-01-13T14:51:09.695Z,10.90
2023-01-13T14:53:46.162Z,10.90
2023-01-13T14:56:39.351Z,10.80
2023-01-13T14:59:35.240Z,10.70
2023-01-13T15:02:22.994Z,10.70
2023-01-13T15:04:53.806Z,10.60
2023-01-13T15:07:30.197Z,10.50
2023-01-13T15:09:59.980Z,10.50
2023-01-13T15:12:39.089Z,10.40
2023-01-13T15:15:18.985Z,10.30
2023-01-13T15:17:46.800Z,10.30
2023-01-13T15:20:14.541Z,10.30
2023-01-13T15:22:41.183Z,10.30
2023-01-13T15:25:12.006Z,10.30
2023-01-13T15:27:39.204Z,10.40
2023-01-13T15:30:26.386Z,10.40
2023-01-13T15:32:57.767Z,10.40
2023-01-13T15:35:27.371Z,10.40
2023-01-13T15:37:56.294Z,10.40
2023-01-13T15:40:33.671Z,10.40
2023-01-13T15:43:19.153Z,10.40
2023-01-13T15:46:04.577Z,10.30
2023-01-13T15:48:32.758Z,10.30
2023-01-13T15:51:00.625Z,10.30
2023-01-13T15:53:28.341Z,10.20
2023-01-13T15:55:57.870Z,10.10
2023-01-13T15:58:28.196Z,10.00
2023-01-13T16:00:55.334Z,9.90
2023-01-13T16:03:22.297Z,9.80
2023-01-13T16:05:49.503Z,9.60
2023-01-13T16:08:22.443Z,9.50
2023-01-13T16:10:49.963Z,9.50
2023-01-13T16:13:17.753Z,9.40
2023-01-13T16:15:49.154Z,9.30
2023-01-13T16:18:26.265Z,9.30
2023-01-13T16:20:55.028Z,9.30
2023-01-13T16:23:22.634Z,9.20
2023-01-13T16:25:49.986Z,9.20
2023-01-13T16:28:28.134Z,9.10
2023-01-13T16:30:54.867Z,9.00
2023-01-13T16:33:21.474Z,9.00
2023-01-13T16:36:11.021Z,8.90
2023-01-13T16:38:34.704Z,8.80
2023-01-13T16:41:01.355Z,8.80
2023-01-13T16:43:27.973Z,8.70
2023-01-13T16:45:54.692Z,8.70
2023-01-13T16:48:22.680Z,8.70
2023-01-13T16:50:49.422Z,8.70
2023-01-13T16:53:16.348Z,8.70
2023-01-13T16:55:43.502Z,8.70
2023-01-13T16:58:17.983Z,8.70
2023-01-13T17:00:48.377Z,8.80
2023-01-13T17:03:16.001Z,8.80
2023-01-13T17:05:44.624Z,8.80
2023-01-13T17:08:17.560Z,8.90
2023-01-13T17:10:45.526Z,8.90
2023-01-13T17:13:16.236Z,9.00
2023-01-13T17:15:44.361Z,9.00
2023-01-13T17:18:13.088Z,9.00
2023-01-13T17:20:39.729Z,9.10
2023-01-13T17:23:06.329Z,9.10
2023-01-13T17:25:32.957Z,9.20
2023-01-13T17:27:59.574Z,9.20
2023-01-13T17:30:26.202Z,9.20
2023-01-13T17:32:52.841Z,9.30
2023-01-13T17:35:24.506Z,9.30
2023-01-13T17:37:52.484Z,9.30
2023-01-13T17:40:19.379Z,9.30
2023-01-13T17:42:45.975Z,9.40
2023-01-13T17:45:12.639Z,9.30
2023-01-13T17:47:39.258Z,9.40
2023-01-13T17:50:06.333Z,9.40
2023-01-13T17:52:34.067Z,9.40
2023-01-13T17:55:00.678Z,9.40
2023-01-13T17:57:27.289Z,9.50
2023-01-13T17:59:53.913Z,9.50
2023-01-13T18:02:20.621Z,9.50
2023-01-13T18:04:47.256Z,9.50
2023-01-13T18:07:13.844Z,9.50
2023-01-13T18:09:40.464Z,9.50
2023-01-13T18:12:07.300Z,9.60
2023-01-13T18:14:34.499Z,9.60
2023-01-13T18:17:01.204Z,9.60
2023-01-13T18:19:46.816Z,9.60
2023-01-13T18:22:32.698Z,9.60
2023-01-13T18:25:17.704Z,9.60
2023-01-13T18:27:44.427Z,9.60
2023-01-13T18:30:12.428Z,9.70
2023-01-13T18:32:39.407Z,9.70
2023-01-13T18:35:10.333Z,9.70
2023-01-13T18:37:40.003Z,9.70
2023-01-13T18:40:09.240Z,9.60
2023-01-13T18:42:52.078Z,9.50
2023-01-13T18:45:21.484Z,9.60
2023-01-13T18:47:48.124Z,9.50
2023-01-13T18:50:15.048Z,9.50
2023-01-13T18:52:41.704Z,9.50
2023-01-13T18:55:08.819Z,9.40
2023-01-13T18:57:40.339Z,9.40
2023-01-13T19:00:12.880Z,9.40
2023-01-13T19:02:39.820Z,9.40
2023-01-13T19:05:06.902Z,9.40
2023-01-13T19:07:35.603Z,9.40
2023-01-13T19:10:04.326Z,9.40
2023-01-13T19:12:31.540Z,9.40
2023-01-13T19:14:59.391Z,9.30
2023-01-13T19:17:30.761Z,9.30
2023-01-13T19:19:58.353Z,9.30
2023-01-13T19:22:30.169Z,9.30
2023-01-13T19:24:57.956Z,9.30
2023-01-13T19:27:27.375Z,9.30
2023-01-13T19:29:57.455Z,9.30
2023-01-13T19:32:25.170Z,9.30
2023-01-13T19:34:51.953Z,9.20
2023-01-13T19:37:19.363Z,9.10
2023-01-13T19:39:46.020Z,9.10
2023-01-13T19:42:32.132Z,9.20
2023-01-13T19:45:17.318Z,9.20
2023-01-13T19:47:45.456Z,9.20
2023-01-13T19:50:13.544Z,9.20
2023-01-13T19:52:43.670Z,9.30
2023-01-13T19:55:12.240Z,9.30
2023-01-13T19:57:40.315Z,9.30
2023-01-13T20:00:08.809Z,9.30
2023-01-13T20:02:36.848Z,9.30
2023-01-13T20:05:06.104Z,9.20
2023-01-13T20:07:35.026Z,9.20
2023-01-13T20:10:01.836Z,9.20
2023-01-13T20:12:29.662Z,9.20
2023-01-13T20:14:56.673Z,9.30
2023-01-13T20:17:25.479Z,9.30
2023-01-13T20:19:52.557Z,9.30
2023-01-13T20:22:19.347Z,9.30
2023-01-13T20:24:45.977Z,9.30
2023-01-13T20:27:12.619Z,9.30
2023-01-13T20:29:39.619Z,9.30
2023-01-13T20:32:06.273Z,9.30
2023-01-13T20:34:32.993Z,9.30
2023-01-13T20:37:00.168Z,9.30
2023-01-13T20:39:27.999Z,9.40
2023-01-13T20:42:13.549Z,9.40
2023-01-13T20:44:40.623Z,9.40
2023-01-13T20:47:07.674Z,9.40
2023-01-13T20:49:36.160Z,9.40
2023-01-13T20:52:09.000Z,9.50
2023-01-13T20:54:40.366Z,9.50
2023-01-13T20:57:09.772Z,9.40
2023-01-13T20:59:38.297Z,9.40
2023-01-13T21:02:07.323Z,9.40
2023-01-13T21:04:33.959Z,9.40
2023-01-13T21:07:00.555Z,9.40
2023-01-13T21:09:27.305Z,9.40
2023-01-13T21:12:12.966Z,9.40
2023-01-13T21:14:59.280Z,9.40
2023-01-13T21:17:44.448Z,9.30
2023-01-13T21:20:13.228Z,9.30
2023-01-13T21:22:40.670Z,9.20
2023-01-13T21:25:07.666Z,9.20
2023-01-13T21:27:34.677Z,9.20
2023-01-13T21:30:01.425Z,9.10
2023-01-13T21:32:28.063Z,9.00
2023-01-13T21:34:54.698Z,9.00
2023-01-13T21:37:22.060Z,8.90
2023-01-13T21:39:48.973Z,8.80
2023-01-13T21:42:35.513Z,8.80
2023-01-13T21:45:21.299Z,8.80
2023-01-13T21:47:50.703Z,8.70
2023-01-13T21:50:20.210Z,8.70
2023-01-13T21:52:48.279Z,8.70
2023-01-13T21:55:25.439Z,8.70
2023-01-13T21:57:53.879Z,8.70
2023-01-13T22:00:22.527Z,8.70
2023-01-13T22:02:49.498Z,8.70
2023-01-13T22:05:18.167Z,8.70
2023-01-13T22:07:45.122Z,8.70
2023-01-13T22:10:17.592Z,8.70
2023-01-13T22:12:44.627Z,8.70
2023-01-13T22:15:14.624Z,8.70
2023-01-13T22:17:42.379Z,8.70
2023-01-13T22:20:14.188Z,8.70
2023-01-13T22:22:41.138Z,8.80
2023-01-13T22:25:10.626Z,8.80
2023-01-13T22:27:43.052Z,8.80
2023-01-13T22:30:14.140Z,8.80
2023-01-13T22:32:40.926Z,8.90
2023-01-13T22:35:09.835Z,8.90
2023-01-13T22:37:37.374Z,8.90
2023-01-13T22:40:05.487Z,8.90
2023-01-13T22:42:32.246Z,9.00
2023-01-13T22:44:58.921Z,8.90
2023-01-13T22:47:25.546Z,9.00
2023-01-13T22:49:52.197Z,9.00
2023-01-13T22:52:18.866Z,9.00
2023-01-13T22:54:45.549Z,9.00
2023-01-13T22:57:12.644Z,9.00
2023-01-13T22:59:39.320Z,9.00
2023-01-13T23:02:06.020Z,9.00
2023-01-13T23:04:32.754Z,9.00
2023-01-13T23:07:00.106Z,9.10
2023-01-13T23:09:29.880Z,9.10
2023-01-13T23:11:58.139Z,9.10
2023-01-13T23:14:25.286Z,9.10
2023-01-13T23:16:52.129Z,9.10
2023-01-13T23:19:18.928Z,9.10
2023-01-13T23:21:45.638Z,9.10
2023-01-13T23:24:12.312Z,9.10
2023-01-13T23:26:39.095Z,9.10
2023-01-13T23:29:09.606Z,9.20
2023-01-13T23:31:36.417Z,9.20
2023-01-13T23:34:03.039Z,9.20
2023-01-13T23:36:29.951Z,9.20
2023-01-13T23:38:58.582Z,9.20
2023-01-13T23:41:27.018Z,9.20
2023-01-13T23:43:55.930Z,9.30
2023-01-13T23:46:23.413Z,9.30
2023-01-13T23:48:50.842Z,9.20
2023-01-13T23:51:18.070Z,9.20
2023-01-13T23:53:46.992Z,9.20
2023-01-13T23:56:21.742Z,9.30
2023-01-13T23:58:49.009Z,9.20
